Gwinner, ND

7:26 AM CDT on April 26, 2017 (GMT -0500)
Gwinner-melroe

Weather History for KGWR - November, 2013

Change the Weather History Date:

Thursday, November 7, 2013

  Actual Average (KP67) Record (KP67)
Temperature  
Mean Temperature 34 °F -  
Max Temperature 46 °F 33 °F 45 °F (1996)
Min Temperature 23 °F 19 °F 27 °F (1996)
Degree Days  
Heating Degree Days 30    
Moisture  
Dew Point 25 °F    
Average Humidity 77    
Maximum Humidity 100    
Minimum Humidity 46    
Precipitation  
Precipitation 0.00 in - - ()
Sea Level Pressure  
Sea Level Pressure 30.19 in    
Wind  
Wind Speed 12 mph (West)    
Max Wind Speed 18 mph    
Max Gust Speed 24 mph    
Visibility 10 miles    
Events      
Averages and records for this station are not official NWS values.
T = Trace of Precipitation, MM = Missing Value Source: NWS Daily Summary

Daily Weather History Graph

Daily Weather History Graph

Search for Another Location

Airport or City:

Trip Planner

Search our weather history database for the weather conditions in past years. The results will help you decide how hot, cold, wet, or windy it might be!

Date:

Astronomy

Nov. 07, 2013 Rise Set
Actual Time 7:20 AM CST 5:07 PM CST
Civil Twilight 6:48 AM CST 5:39 PM CST
Nautical Twilight 6:12 AM CST 6:15 PM CST
Astronomical Twilight 5:37 AM CST 6:50 PM CST
Moon 11:33 AM CST (11/7) 9:18 PM CST (11/7)
Length of Visible Light 10h 50m
Length of Day
9h 46m
Waxing Crescent, 23% of the Moon is Illuminated
Nov 7
Waxing Crescent
Nov 9
First Quarter
Nov 17
Full
Nov 25
Last Quarter
Dec 2
New

Hourly Weather History & Observations

Time (CST) Temp. Windchill Dew Point Humidity Pressure Visibility Wind Dir Wind Speed Gust Speed Precip Events Conditions
12:15 AM 26.6 °F 16.2 °F 26.6 °F 100% 30.16 in 10.0 mi WSW 11.5 mph - 0.00 in   Partly Cloudy
12:35 AM 26.6 °F 16.2 °F 26.6 °F 100% 30.16 in 10.0 mi SW 11.5 mph - 0.00 in   Clear
12:55 AM 26.6 °F 16.8 °F 26.6 °F 100% 30.17 in 10.0 mi WSW 10.4 mph - 0.00 in   Clear
1:15 AM 26.6 °F 16.2 °F 26.6 °F 100% 30.17 in 10.0 mi WSW 11.5 mph - 0.00 in   Partly Cloudy
1:35 AM 28.4 °F 17.5 °F 26.6 °F 93% 30.17 in 10.0 mi West 13.8 mph - 0.00 in   Clear
1:55 AM 28.4 °F 18.0 °F 26.6 °F 93% 30.17 in 10.0 mi West 12.7 mph - 0.00 in   Clear
2:15 AM 28.4 °F 17.5 °F 26.6 °F 93% 30.17 in 10.0 mi West 13.8 mph - 0.00 in   Clear
2:35 AM 28.4 °F 17.5 °F 26.6 °F 93% 30.18 in 10.0 mi West 13.8 mph - 0.00 in   Partly Cloudy
2:55 AM 28.4 °F 16.6 °F 24.8 °F 86% 30.18 in 10.0 mi WNW 16.1 mph - 0.00 in   Clear
3:15 AM 28.4 °F 17.0 °F 23.0 °F 80% 30.18 in 10.0 mi WNW 15.0 mph - 0.00 in   Clear
3:35 AM 26.6 °F 14.3 °F 23.0 °F 86% 30.19 in 10.0 mi WNW 16.1 mph - 0.00 in   Clear
3:55 AM 26.6 °F 13.8 °F 23.0 °F 86% 30.19 in 10.0 mi WNW 17.3 mph - 0.00 in   Clear
4:15 AM 26.6 °F 14.7 °F 23.0 °F 86% 30.20 in 10.0 mi WNW 15.0 mph - 0.00 in   Clear
4:35 AM 26.6 °F 15.7 °F 23.0 °F 86% 30.21 in 10.0 mi WNW 12.7 mph - 0.00 in   Clear
4:55 AM 26.6 °F 14.3 °F 23.0 °F 86% 30.21 in 10.0 mi WNW 16.1 mph - 0.00 in   Clear
5:15 AM 26.6 °F 15.2 °F 23.0 °F 86% 30.22 in 10.0 mi WNW 13.8 mph - 0.00 in   Clear
5:35 AM 26.6 °F 16.2 °F 21.2 °F 80% 30.23 in 10.0 mi WNW 11.5 mph 18.4 mph 0.00 in   Clear
5:55 AM 24.8 °F 15.3 °F 21.2 °F 86% 30.23 in 10.0 mi WNW 9.2 mph - 0.00 in   Clear
6:15 AM 23.0 °F 14.7 °F 21.2 °F 93% 30.24 in 10.0 mi West 6.9 mph - 0.00 in   Clear
6:35 AM 23.0 °F 13.9 °F 19.4 °F 86% 30.24 in 10.0 mi West 8.1 mph - 0.00 in   Partly Cloudy
6:55 AM 23.0 °F 13.9 °F 19.4 °F 86% 30.25 in 10.0 mi West 8.1 mph - 0.00 in   Scattered Clouds
7:15 AM 23.0 °F 13.9 °F 21.2 °F 93% 30.25 in 10.0 mi WSW 8.1 mph - 0.00 in   Mostly Cloudy
7:35 AM 23.0 °F 13.1 °F 21.2 °F 93% 30.25 in 9.0 mi WSW 9.2 mph - 0.00 in   Scattered Clouds
7:55 AM 24.8 °F 16.1 °F 21.2 °F 86% 30.25 in 10.0 mi WSW 8.1 mph - 0.00 in   Partly Cloudy
8:15 AM 24.8 °F 16.1 °F 21.2 °F 86% 30.25 in 9.0 mi SW 8.1 mph - 0.00 in   Clear
8:35 AM 26.6 °F 17.5 °F 23.0 °F 86% 30.26 in 9.0 mi WSW 9.2 mph - 0.00 in   Scattered Clouds
8:55 AM 28.4 °F 18.5 °F 23.0 °F 80% 30.25 in 10.0 mi WSW 11.5 mph - 0.00 in   Mostly Cloudy
9:15 AM 30.2 °F 20.2 °F 23.0 °F 75% 30.25 in 10.0 mi SW 12.7 mph - 0.00 in   Mostly Cloudy
9:35 AM 30.2 °F 21.3 °F 24.8 °F 80% 30.25 in 9.0 mi SW 10.4 mph - 0.00 in   Scattered Clouds
9:55 AM 32.0 °F 22.5 °F 24.8 °F 75% 30.23 in 10.0 mi SW 12.7 mph - 0.00 in   Partly Cloudy
10:15 AM 32.0 °F 22.5 °F 24.8 °F 75% 30.23 in 10.0 mi SW 12.7 mph - 0.00 in   Partly Cloudy
10:35 AM 32.0 °F 22.5 °F 26.6 °F 80% 30.23 in 9.0 mi WSW 12.7 mph - 0.00 in   Scattered Clouds
10:55 AM 33.8 °F 25.3 °F 26.6 °F 75% 30.23 in - WSW 11.5 mph - 0.00 in   Mostly Cloudy
11:15 AM 33.8 °F 25.3 °F 26.6 °F 75% 30.22 in - WSW 11.5 mph - 0.00 in   Mostly Cloudy
11:35 AM 37.4 °F 29.3 °F 28.4 °F 70% 30.22 in 9.0 mi WSW 12.7 mph - 0.00 in   Mostly Cloudy
11:55 AM 39.2 °F 31.2 °F 28.4 °F 65% 30.21 in 10.0 mi WSW 13.8 mph 20.7 mph 0.00 in   Mostly Cloudy
12:15 PM 42.8 °F 35.1 °F 28.4 °F 57% 30.21 in 10.0 mi WNW 16.1 mph 19.6 mph 0.00 in   Mostly Cloudy
12:35 PM 41.0 °F 33.9 °F 26.6 °F 57% 30.21 in 10.0 mi WNW 12.7 mph - 0.00 in   Mostly Cloudy
12:55 PM 42.8 °F 35.1 °F 26.6 °F 53% 30.20 in 10.0 mi WNW 16.1 mph 23.0 mph 0.00 in   Scattered Clouds
1:15 PM 44.6 °F 38.4 °F 28.4 °F 53% 30.20 in 10.0 mi West 12.7 mph 20.7 mph 0.00 in   Partly Cloudy
1:35 PM 44.6 °F 38.1 °F 28.4 °F 53% 30.19 in 10.0 mi WNW 13.8 mph - 0.00 in   Clear
1:55 PM 46.4 °F 39.5 °F 28.4 °F 50% 30.18 in 10.0 mi WNW 17.3 mph - 0.00 in   Clear
2:15 PM 46.4 °F 40.1 °F 28.4 °F 50% 30.18 in 10.0 mi WNW 15.0 mph 20.7 mph 0.00 in   Clear
2:35 PM 46.4 °F 39.2 °F 26.6 °F 46% 30.18 in 10.0 mi WNW 18.4 mph 24.2 mph 0.00 in   Clear
2:55 PM 46.4 °F 39.2 °F 26.6 °F 46% 30.17 in 10.0 mi NW 18.4 mph 23.0 mph 0.00 in   Clear
3:15 PM 46.4 °F 39.8 °F 26.6 °F 46% 30.17 in 10.0 mi WNW 16.1 mph - 0.00 in   Clear
3:35 PM 46.4 °F 40.7 °F 26.6 °F 46% 30.17 in 10.0 mi WNW 12.7 mph 18.4 mph 0.00 in   Clear
3:55 PM 46.4 °F 40.7 °F 26.6 °F 46% 30.17 in 10.0 mi NW 12.7 mph - 0.00 in   Clear
4:55 PM 42.8 °F 38.0 °F 26.6 °F 53% 30.17 in 10.0 mi WNW 8.1 mph - 0.00 in   Clear
5:15 PM 37.4 °F 32.1 °F 24.8 °F 60% 30.17 in 10.0 mi West 6.9 mph - 0.00 in   Clear
5:35 PM 33.8 °F 27.7 °F 23.0 °F 65% 30.17 in 10.0 mi West 6.9 mph - 0.00 in   Clear
5:55 PM 33.8 °F 27.7 °F 23.0 °F 65% 30.17 in 10.0 mi West 6.9 mph - 0.00 in   Clear
6:15 PM 32.0 °F 25.6 °F 23.0 °F 69% 30.17 in 10.0 mi West 6.9 mph - 0.00 in   Clear
6:35 PM 30.2 °F 23.4 °F 23.0 °F 75% 30.18 in 10.0 mi West 6.9 mph - 0.00 in   Clear
6:55 PM 32.0 °F 24.8 °F 23.0 °F 69% 30.18 in 8.0 mi West 8.1 mph - 0.00 in   Clear
7:15 PM 30.2 °F 22.6 °F 24.8 °F 80% 30.17 in 10.0 mi West 8.1 mph - 0.00 in   Clear
7:35 PM 30.2 °F 23.4 °F 24.8 °F 80% 30.16 in 10.0 mi West 6.9 mph - 0.00 in   Clear
7:55 PM 30.2 °F 23.4 °F 24.8 °F 80% 30.16 in 10.0 mi West 6.9 mph - 0.00 in   Clear
8:15 PM 28.4 °F 20.4 °F 23.0 °F 80% 30.16 in 10.0 mi WSW 8.1 mph - 0.00 in   Clear
8:35 PM 28.4 °F 22.2 °F 24.8 °F 86% 30.14 in 10.0 mi West 5.8 mph - 0.00 in   Clear
8:55 PM 28.4 °F 23.3 °F 23.0 °F 80% 30.14 in 10.0 mi West 4.6 mph - 0.00 in   Clear
9:15 PM 28.4 °F 21.2 °F 23.0 °F 80% 30.14 in 10.0 mi WSW 6.9 mph - 0.00 in   Clear
9:35 PM 26.6 °F 19.1 °F 23.0 °F 86% 30.14 in 10.0 mi WSW 6.9 mph - 0.00 in   Clear
9:55 PM 26.6 °F 20.0 °F 23.0 °F 86% 30.13 in 10.0 mi SW 5.8 mph - 0.00 in   Clear
10:15 PM 26.6 °F 20.0 °F 23.0 °F 86% 30.13 in 10.0 mi SW 5.8 mph - 0.00 in   Clear
10:35 PM 26.6 °F 19.1 °F 24.8 °F 93% 30.12 in 10.0 mi South 6.9 mph - 0.00 in   Clear
10:55 PM 26.6 °F 19.1 °F 23.0 °F 86% 30.11 in 10.0 mi SSW 6.9 mph - 0.00 in   Clear
11:15 PM 26.6 °F 18.2 °F 24.8 °F 93% 30.11 in 10.0 mi SSW 8.1 mph - 0.00 in   Clear
11:35 PM 28.4 °F 21.2 °F 26.6 °F 93% 30.11 in 10.0 mi SSW 6.9 mph - 0.00 in   Clear
11:55 PM 26.6 °F 19.1 °F 24.8 °F 93% 30.10 in 10.0 mi SSW 6.9 mph - 0.00 in   Clear